Issaquah, WA

10:22 PM PDT on September 16, 2014 (GMT -0700)
Front Street | Change Station
CLOSE
Current Station
Personal Weather Station
Location: Issaquah, WA
Elevation: 92 ft
Nearby Weather Stations

Elev 92 ft 47.53 °N, 122.04 °W | Updated 2 minutes ago

Mostly Cloudy
Mostly Cloudy
63.4 °F
Feels Like 63.4 °F
N
0.0
Wind Variable Wind from SSE
Gusts 0.0 mph

Today
High -- | Low -- °F
--% Chance of Precip.
Yesterday
High -- | Low -- °F
Precip. -- in
6:47 AM 7:18 PM
Last Quarter, 39% visible
Pressure 29.88 in
Visibility 10.0 miles
Clouds Clear
Dew Point 57 °F
Humidity 79%
Rainfall 0.00 in
Snow Depth 0 in , 0 in , 0 in
UV 0.0 out of 12
Pollen 1.80 out of 12
Air Quality Not available.
Flu Activity Not available.
METAR KRNT 170453Z AUTO 00000KT 10SM CLR 18/14 A2987 RMK AO2 SLP119 T01830139

More Conditions Fewer Conditions

Pressure 29.88 in
Visibility 10.0 miles
Clouds Clear
Dew Point 57 °F
Humidity 79%
Rainfall 0.00 in
Snow Depth 0 in , 0 in , 0 in
UV 0.0 out of 12
Pollen 1.80 out of 12
Air Quality Not available.
Flu Activity Not available.
METAR KRNT 170453Z AUTO 00000KT 10SM CLR 18/14 A2987 RMK AO2 SLP119 T01830139

More Conditions Fewer Conditions

10-Day Weather Forecast

Almanac

Astronomy

Sep. 16, 2014 Rise Set
Actual Time 6:47 AM PDT 7:18 PM PDT
Civil Twilight 6:16 AM PDT 7:48 PM PDT
Nautical Twilight 5:39 AM PDT 8:25 PM PDT
Astronomical Twilight 5:01 AM PDT 9:03 PM PDT
Moon No Moon Rise 3:04 PM PDT (9/16)
Length of Visible Light 13h 32m
Length of Day
12h 30m
Tomorrow will be 3m 23s shorter.
Last Quarter, 39% of the Moon is Illuminated
Sep 17
Last Quarter
Sep 24
New
Oct 1
First Quarter
Oct 8
Full
Oct 15
Last Quarter

Yesterday's Extremes

State Highs State Lows

Community

WunderPhotos

Upload Photos

1,753,968 photos uploaded!

Nearby

Snow Depth

Station Depth Elevation
Spencer Meadow 0 in 3400 ft
Park Creek Ridge 0 in 4600 ft
June Lake 0 in 3340 ft
Sentinel Butte 0 in 4920 ft
Harts Pass 0 in 6500 ft

Earthquake Activity

City Distance Mag. Time & Date
Morton, Washington 84 miles 3.0 5:43 AM PDT
2014-09-16
Minimum magnitude displayed is 2.5.

Coastal Water Temperatures

Place Temperature
Port Townsend, WA 53.1 °F
Seattle, WA 55.9 °F
Friday Harbor, WA 53.1 °F
Tacoma, WA 55.9 °F

Nearby Weather Stations